createdAt,value
2018-08-06T00:00:27.692Z,16.90
2018-08-06T00:02:56.487Z,16.90
2018-08-06T00:05:25.291Z,16.90
2018-08-06T00:07:54.082Z,16.90
2018-08-06T00:10:24.232Z,16.90
2018-08-06T00:12:53.142Z,16.80
2018-08-06T00:15:21.971Z,16.80
2018-08-06T00:17:50.772Z,16.80
2018-08-06T00:20:19.589Z,16.70
2018-08-06T00:22:48.382Z,16.70
2018-08-06T00:25:17.747Z,16.70
2018-08-06T00:27:46.711Z,16.70
2018-08-06T00:30:17.156Z,16.70
2018-08-06T00:32:46.654Z,16.70
2018-08-06T00:35:15.805Z,16.70
2018-08-06T00:37:44.680Z,16.70
2018-08-06T00:40:15.516Z,16.70
2018-08-06T00:42:45.000Z,16.60
2018-08-06T00:45:15.675Z,16.60
2018-08-06T00:47:44.955Z,16.60
2018-08-06T00:50:13.882Z,16.60
2018-08-06T00:52:42.749Z,16.60
2018-08-06T00:55:13.241Z,16.60
2018-08-06T00:57:42.219Z,16.60
2018-08-06T01:00:13.500Z,16.50
2018-08-06T01:02:42.448Z,16.60
2018-08-06T01:05:12.439Z,16.50
2018-08-06T01:07:41.744Z,16.50
2018-08-06T01:10:12.864Z,16.50
2018-08-06T01:12:41.790Z,16.50
2018-08-06T01:15:12.347Z,16.40
2018-08-06T01:17:41.211Z,16.50
2018-08-06T01:20:11.424Z,16.40
2018-08-06T01:22:40.838Z,16.50
2018-08-06T01:25:09.648Z,16.50
2018-08-06T01:27:38.456Z,16.40
2018-08-06T01:30:09.003Z,16.40
2018-08-06T01:32:38.306Z,16.40
2018-08-06T01:35:08.355Z,16.40
2018-08-06T01:37:37.179Z,16.30
2018-08-06T01:40:07.612Z,16.30
2018-08-06T01:42:36.418Z,16.30
2018-08-06T01:45:05.503Z,16.30
2018-08-06T01:47:34.311Z,16.20
2018-08-06T01:50:03.200Z,16.20
2018-08-06T01:52:32.020Z,16.10
2018-08-06T01:55:00.825Z,16.10
2018-08-06T01:57:29.625Z,16.10
2018-08-06T01:59:58.432Z,16.10
2018-08-06T02:02:27.232Z,16.10
2018-08-06T02:04:56.054Z,16.10
2018-08-06T02:07:24.866Z,16.10
2018-08-06T02:09:53.690Z,16.10
2018-08-06T02:12:22.516Z,16.10
2018-08-06T02:14:51.318Z,16.00
2018-08-06T02:17:20.121Z,16.00
2018-08-06T02:19:48.914Z,16.00
2018-08-06T02:22:17.726Z,16.00
2018-08-06T02:24:46.546Z,16.00
2018-08-06T02:27:15.359Z,16.00
2018-08-06T02:29:44.154Z,16.00
2018-08-06T02:32:12.973Z,16.00
2018-08-06T02:34:41.787Z,15.90
2018-08-06T02:37:10.586Z,15.90
2018-08-06T02:39:39.390Z,15.90
2018-08-06T02:42:08.190Z,15.90
2018-08-06T02:44:36.993Z,15.90
2018-08-06T02:47:06.026Z,15.80
2018-08-06T02:49:34.825Z,15.80
2018-08-06T02:52:03.631Z,15.80
2018-08-06T02:54:32.441Z,15.80
2018-08-06T02:57:01.232Z,15.80
2018-08-06T02:59:30.033Z,15.80
2018-08-06T03:01:58.813Z,15.80
2018-08-06T03:04:27.657Z,15.70
2018-08-06T03:06:56.449Z,15.70
2018-08-06T03:09:25.273Z,15.70
2018-08-06T03:11:54.063Z,15.70
2018-08-06T03:14:22.858Z,15.70
2018-08-06T03:16:51.667Z,15.80
2018-08-06T03:19:20.458Z,15.80
2018-08-06T03:21:49.261Z,15.80
2018-08-06T03:24:18.310Z,15.80
2018-08-06T03:26:47.099Z,15.80
2018-08-06T03:29:15.889Z,15.70
2018-08-06T03:31:44.691Z,15.70
2018-08-06T03:34:13.485Z,15.70
2018-08-06T03:36:42.282Z,15.70
2018-08-06T03:39:11.355Z,15.70
2018-08-06T03:41:40.138Z,15.70
2018-08-06T03:44:08.977Z,15.70
2018-08-06T03:46:37.762Z,15.70
2018-08-06T03:49:06.562Z,15.70
2018-08-06T03:51:35.375Z,15.80
2018-08-06T03:54:04.202Z,15.80
2018-08-06T03:56:33.001Z,15.70
2018-08-06T03:59:01.839Z,15.80
2018-08-06T04:01:30.642Z,15.70
2018-08-06T04:03:59.443Z,15.80
2018-08-06T04:06:28.237Z,15.90
2018-08-06T04:08:57.040Z,15.90
2018-08-06T04:11:25.841Z,16.00
2018-08-06T04:13:54.629Z,16.10
2018-08-06T04:16:27.890Z,16.20
2018-08-06T04:18:56.695Z,16.30
2018-08-06T04:21:25.511Z,16.50
2018-08-06T04:23:54.302Z,16.60
2018-08-06T04:26:23.115Z,16.80
2018-08-06T04:28:51.911Z,16.90
2018-08-06T04:31:20.714Z,17.10
2018-08-06T04:33:49.503Z,17.20
2018-08-06T04:36:18.338Z,17.40
2018-08-06T04:38:47.339Z,17.60
2018-08-06T04:41:16.137Z,17.80
2018-08-06T04:43:44.952Z,17.80
2018-08-06T04:46:13.787Z,18.00
2018-08-06T04:48:42.577Z,18.20
2018-08-06T04:51:11.393Z,18.50
2018-08-06T04:53:40.203Z,18.80
2018-08-06T04:56:09.035Z,19.10
2018-08-06T04:58:37.836Z,19.40
2018-08-06T05:01:06.659Z,19.70
2018-08-06T05:03:35.462Z,19.90
2018-08-06T05:06:04.266Z,20.20
2018-08-06T05:08:33.119Z,20.50
2018-08-06T05:11:01.917Z,20.80
2018-08-06T05:13:30.716Z,21.00
2018-08-06T05:15:59.534Z,21.30
2018-08-06T05:18:28.666Z,21.70
2018-08-06T05:20:57.443Z,22.00
2018-08-06T05:23:58.109Z,22.40
2018-08-06T05:26:27.985Z,22.70
2018-08-06T05:28:56.781Z,23.00
2018-08-06T05:31:26.689Z,23.40
2018-08-06T05:33:56.154Z,23.90
2018-08-06T05:36:25.858Z,24.30
2018-08-06T05:38:55.577Z,24.60
2018-08-06T05:41:26.358Z,24.90
2018-08-06T05:43:55.953Z,25.00
2018-08-06T05:46:25.014Z,25.30
2018-08-06T05:48:53.830Z,25.70
2018-08-06T05:51:22.654Z,25.90
2018-08-06T05:53:51.461Z,26.40
2018-08-06T05:56:20.283Z,27.00
2018-08-06T05:58:49.090Z,27.20
2018-08-06T06:01:17.890Z,27.50
2018-08-06T06:03:46.695Z,28.40
2018-08-06T06:06:15.486Z,29.90
2018-08-06T06:08:44.294Z,31.20
2018-08-06T06:11:13.095Z,31.80
2018-08-06T06:13:41.893Z,32.70
2018-08-06T06:16:10.701Z,33.40
2018-08-06T06:18:39.506Z,34.30
2018-08-06T06:21:08.311Z,35.50
2018-08-06T06:23:37.111Z,35.80
2018-08-06T06:26:05.902Z,35.50
2018-08-06T06:28:34.713Z,35.80
2018-08-06T06:31:03.494Z,36.00
2018-08-06T06:33:32.283Z,36.50
2018-08-06T06:36:01.076Z,36.20
2018-08-06T06:38:30.377Z,35.50
2018-08-06T06:40:59.195Z,35.10
2018-08-06T06:43:27.996Z,35.20
2018-08-06T06:45:56.786Z,34.30
2018-08-06T06:48:25.591Z,33.50
2018-08-06T06:50:54.898Z,32.90
2018-08-06T06:53:23.705Z,32.10
2018-08-06T06:55:52.510Z,31.20
2018-08-06T06:58:21.306Z,31.00
2018-08-06T07:00:50.145Z,30.60
2018-08-06T07:03:19.767Z,29.70
2018-08-06T07:05:48.791Z,28.70
2018-08-06T07:08:17.585Z,28.00
2018-08-06T07:10:46.465Z,27.30
2018-08-06T07:13:15.282Z,27.00
2018-08-06T07:15:44.236Z,26.80
2018-08-06T07:18:13.035Z,27.00
2018-08-06T07:20:41.821Z,26.80
2018-08-06T07:23:10.643Z,26.30
2018-08-06T07:25:39.425Z,26.80
2018-08-06T07:28:08.221Z,27.00
2018-08-06T07:30:37.026Z,27.00
2018-08-06T07:33:05.874Z,26.90
2018-08-06T07:35:34.661Z,26.90
2018-08-06T07:38:03.456Z,26.60
2018-08-06T07:40:32.251Z,26.60
2018-08-06T07:43:01.054Z,26.50
2018-08-06T07:45:29.862Z,26.80
2018-08-06T07:47:58.705Z,26.40
2018-08-06T07:50:27.453Z,26.10
2018-08-06T07:52:56.316Z,26.30
2018-08-06T07:55:25.136Z,26.70
2018-08-06T07:57:53.953Z,26.50
2018-08-06T08:00:22.787Z,26.60
2018-08-06T08:02:51.566Z,27.00
2018-08-06T08:05:20.863Z,27.20
2018-08-06T08:07:49.702Z,27.60
2018-08-06T08:10:19.983Z,27.20
2018-08-06T08:12:48.782Z,27.00
2018-08-06T08:15:20.213Z,27.30
2018-08-06T08:17:49.022Z,27.50
2018-08-06T08:20:18.332Z,27.90
2018-08-06T08:22:47.142Z,27.70
2018-08-06T08:25:17.656Z,27.90
2018-08-06T08:27:46.943Z,27.70
2018-08-06T08:30:16.319Z,27.60
2018-08-06T08:32:45.133Z,27.20
2018-08-06T08:35:14.768Z,27.00
2018-08-06T08:37:43.565Z,27.20
2018-08-06T08:40:14.939Z,27.90
2018-08-06T08:42:44.611Z,28.80
2018-08-06T08:45:15.212Z,29.00
2018-08-06T08:47:44.837Z,29.40
2018-08-06T08:50:14.834Z,28.80
2018-08-06T08:52:43.833Z,28.50
2018-08-06T08:55:14.861Z,28.10
2018-08-06T08:57:43.835Z,27.90
2018-08-06T09:00:14.842Z,27.80
2018-08-06T09:02:45.197Z,27.60
2018-08-06T09:05:14.967Z,27.30
2018-08-06T09:07:43.774Z,26.60
2018-08-06T09:10:13.619Z,25.90
2018-08-06T09:12:42.851Z,25.30
2018-08-06T09:15:15.089Z,25.20
2018-08-06T09:17:44.088Z,26.00
2018-08-06T09:20:12.935Z,27.00
2018-08-06T09:22:42.633Z,28.00
2018-08-06T09:25:12.083Z,28.30
2018-08-06T09:27:42.138Z,28.40
2018-08-06T09:30:15.949Z,28.60
2018-08-06T09:32:45.675Z,29.00
2018-08-06T09:35:14.995Z,28.70
2018-08-06T09:37:43.874Z,28.70
2018-08-06T09:40:13.880Z,29.10
2018-08-06T09:42:43.218Z,28.80
2018-08-06T09:45:13.039Z,28.30
2018-08-06T09:47:43.090Z,28.80
2018-08-06T09:50:12.584Z,29.30
2018-08-06T09:52:42.214Z,29.50
2018-08-06T09:55:13.495Z,29.00
2018-08-06T09:57:42.837Z,29.10
2018-08-06T10:00:21.418Z,29.50
2018-08-06T10:02:50.989Z,29.80
2018-08-06T10:05:20.973Z,29.90
2018-08-06T10:07:50.261Z,29.90
2018-08-06T10:10:19.086Z,29.60
2018-08-06T10:12:48.003Z,28.60
2018-08-06T10:15:17.046Z,28.40
2018-08-06T10:17:46.813Z,28.70
2018-08-06T10:20:17.390Z,28.80
2018-08-06T10:22:46.205Z,28.80
2018-08-06T10:25:15.460Z,29.10
2018-08-06T10:27:44.986Z,28.90
2018-08-06T10:30:14.885Z,28.50
2018-08-06T10:32:43.915Z,28.40
2018-08-06T10:35:13.649Z,28.80
2018-08-06T10:37:42.479Z,28.60
2018-08-06T10:40:13.595Z,28.90
2018-08-06T10:42:43.124Z,29.00
2018-08-06T10:45:13.465Z,29.00
2018-08-06T10:47:42.424Z,29.10
2018-08-06T10:50:11.324Z,28.70
2018-08-06T10:52:40.223Z,27.90
2018-08-06T10:55:09.630Z,27.70
2018-08-06T10:57:39.409Z,27.60
2018-08-06T11:00:14.270Z,27.40
2018-08-06T11:02:43.133Z,27.00
2018-08-06T11:05:13.147Z,27.10
2018-08-06T11:07:41.928Z,27.10
2018-08-06T11:10:12.552Z,27.10
2018-08-06T11:12:41.447Z,27.10
2018-08-06T11:15:13.099Z,26.90
2018-08-06T11:17:41.910Z,26.90
2018-08-06T11:20:11.776Z,26.80
2018-08-06T11:22:40.758Z,26.80
2018-08-06T11:25:11.057Z,26.70
2018-08-06T11:27:39.934Z,26.70
2018-08-06T11:30:11.438Z,26.60
2018-08-06T11:32:40.235Z,26.80
2018-08-06T11:35:09.714Z,26.70
2018-08-06T11:37:38.654Z,26.70
2018-08-06T11:40:09.603Z,26.70
2018-08-06T11:42:39.249Z,26.70
2018-08-06T11:45:09.863Z,26.60
2018-08-06T11:47:38.672Z,26.60
2018-08-06T11:50:08.063Z,26.60
2018-08-06T11:52:36.882Z,26.70
2018-08-06T11:55:06.714Z,26.80
2018-08-06T11:57:35.558Z,26.90
2018-08-06T12:00:07.618Z,27.00
2018-08-06T12:02:36.413Z,27.10
2018-08-06T12:05:05.381Z,27.00
2018-08-06T12:07:34.174Z,27.00
2018-08-06T12:10:03.460Z,27.00
2018-08-06T12:12:32.262Z,27.00
2018-08-06T12:15:01.176Z,27.00
2018-08-06T12:17:29.961Z,27.00
2018-08-06T12:19:58.754Z,26.90
2018-08-06T12:22:27.561Z,27.00
2018-08-06T12:24:56.562Z,27.10
2018-08-06T12:27:25.419Z,27.10
2018-08-06T12:29:54.202Z,27.10
2018-08-06T12:32:23.009Z,27.10
2018-08-06T12:34:51.858Z,27.10
2018-08-06T12:37:20.668Z,27.20
2018-08-06T12:39:49.540Z,27.20
2018-08-06T12:42:18.443Z,27.20
2018-08-06T12:44:47.304Z,27.30
2018-08-06T12:47:16.266Z,27.30
2018-08-06T12:49:45.111Z,27.30
2018-08-06T12:52:13.913Z,27.40
2018-08-06T12:54:42.706Z,27.30
2018-08-06T12:57:11.623Z,27.30
2018-08-06T12:59:40.370Z,27.20
2018-08-06T13:02:09.166Z,27.30
2018-08-06T13:04:37.958Z,27.50
2018-08-06T13:07:06.772Z,27.60
2018-08-06T13:09:35.618Z,27.70
2018-08-06T13:12:04.543Z,27.70
2018-08-06T13:14:33.342Z,27.60
2018-08-06T13:17:02.121Z,27.70
2018-08-06T13:19:30.971Z,27.70
2018-08-06T13:21:59.778Z,27.60
2018-08-06T13:24:28.579Z,27.50
2018-08-06T13:26:57.389Z,27.50
2018-08-06T13:29:26.195Z,27.50
2018-08-06T13:31:54.999Z,27.70
2018-08-06T13:34:23.822Z,27.80
2018-08-06T13:36:52.691Z,27.90
2018-08-06T13:39:21.443Z,28.00
2018-08-06T13:41:50.262Z,28.00
2018-08-06T13:44:19.530Z,27.90
2018-08-06T13:46:48.396Z,27.70
2018-08-06T13:49:17.233Z,27.70
2018-08-06T13:51:46.034Z,27.80
2018-08-06T13:54:14.896Z,27.80
2018-08-06T13:56:43.674Z,27.80
2018-08-06T13:59:12.575Z,27.80
2018-08-06T14:01:41.292Z,27.80
2018-08-06T14:04:10.173Z,27.90
2018-08-06T14:06:39.069Z,27.90
2018-08-06T14:09:09.103Z,28.00
2018-08-06T14:11:37.930Z,28.00
2018-08-06T14:14:06.774Z,28.10
2018-08-06T14:16:35.625Z,28.10
2018-08-06T14:19:04.877Z,28.10
2018-08-06T14:21:33.687Z,28.20
2018-08-06T14:24:02.639Z,28.20
2018-08-06T14:26:31.414Z,28.30
2018-08-06T14:29:00.283Z,28.30
2018-08-06T14:31:29.112Z,28.30
2018-08-06T14:33:57.926Z,28.30
2018-08-06T14:36:26.716Z,28.40
2018-08-06T14:38:55.524Z,28.40
2018-08-06T14:41:24.341Z,28.40
2018-08-06T14:43:53.141Z,28.40
2018-08-06T14:46:22.006Z,28.30
2018-08-06T14:48:50.889Z,28.20
2018-08-06T14:51:19.688Z,28.30
2018-08-06T14:53:48.572Z,28.30
2018-08-06T14:56:17.381Z,28.30
2018-08-06T14:58:46.181Z,28.30
2018-08-06T15:01:15.093Z,28.30
2018-08-06T15:03:43.885Z,28.30
2018-08-06T15:06:12.701Z,28.20
2018-08-06T15:08:41.567Z,28.30
2018-08-06T15:11:10.610Z,28.30
2018-08-06T15:13:39.253Z,28.50
2018-08-06T15:16:08.091Z,28.60
2018-08-06T15:18:36.892Z,28.60
2018-08-06T15:21:05.946Z,28.60
2018-08-06T15:23:34.759Z,28.50
2018-08-06T15:26:03.557Z,28.50
2018-08-06T15:28:32.356Z,28.40
2018-08-06T15:31:01.161Z,28.50
2018-08-06T15:33:29.970Z,28.50
2018-08-06T15:35:58.790Z,28.40
2018-08-06T15:38:27.597Z,28.30
2018-08-06T15:40:56.395Z,28.30
2018-08-06T15:43:25.211Z,28.30
2018-08-06T15:45:53.996Z,28.30
2018-08-06T15:48:22.790Z,28.30
2018-08-06T15:50:51.593Z,28.40
2018-08-06T15:53:20.401Z,28.40
2018-08-06T15:55:49.190Z,28.40
2018-08-06T15:58:18.007Z,28.30
2018-08-06T16:00:46.819Z,28.30
2018-08-06T16:03:15.640Z,28.50
2018-08-06T16:05:44.435Z,28.50
2018-08-06T16:08:13.330Z,28.50
2018-08-06T16:10:42.233Z,28.60
2018-08-06T16:13:11.032Z,28.60
2018-08-06T16:15:39.830Z,28.60
2018-08-06T16:18:08.705Z,28.50
2018-08-06T16:20:37.459Z,28.40
2018-08-06T16:23:06.539Z,28.40
2018-08-06T16:25:35.349Z,28.50
2018-08-06T16:28:04.145Z,28.40
2018-08-06T16:30:32.950Z,28.30
2018-08-06T16:33:01.744Z,28.30
2018-08-06T16:35:30.556Z,28.20
2018-08-06T16:37:59.385Z,28.30
2018-08-06T16:40:28.198Z,28.20
2018-08-06T16:42:56.997Z,28.20
2018-08-06T16:45:25.797Z,28.10
2018-08-06T16:47:54.601Z,28.10
2018-08-06T16:50:23.407Z,28.10
2018-08-06T16:52:52.246Z,28.10
2018-08-06T16:55:21.014Z,28.10
2018-08-06T16:57:49.804Z,28.10
2018-08-06T17:00:19.925Z,28.10
2018-08-06T17:02:49.213Z,28.00
2018-08-06T17:05:18.051Z,28.00
2018-08-06T17:07:47.653Z,27.90
2018-08-06T17:10:17.639Z,27.90
2018-08-06T17:12:47.713Z,27.90
2018-08-06T17:15:17.756Z,27.80
2018-08-06T17:17:47.223Z,27.70
2018-08-06T17:20:17.390Z,27.80
2018-08-06T17:22:47.358Z,27.70
2018-08-06T17:25:16.162Z,27.70
2018-08-06T17:27:45.093Z,27.60
2018-08-06T17:30:14.648Z,27.60
2018-08-06T17:32:43.442Z,27.60
2018-08-06T17:35:12.935Z,27.50
2018-08-06T17:37:41.729Z,27.50
2018-08-06T17:40:12.881Z,27.50
2018-08-06T17:42:41.824Z,27.40
2018-08-06T17:45:16.583Z,27.30
2018-08-06T17:47:45.394Z,27.30
2018-08-06T17:50:18.014Z,27.30
2018-08-06T17:52:47.826Z,27.20
2018-08-06T17:55:17.433Z,27.10
2018-08-06T17:57:46.527Z,27.10
2018-08-06T18:00:15.710Z,27.10
2018-08-06T18:02:44.521Z,27.00
2018-08-06T18:05:14.387Z,26.90
2018-08-06T18:07:43.920Z,26.90
2018-08-06T18:10:14.177Z,26.80
2018-08-06T18:12:44.124Z,26.70
2018-08-06T18:15:12.914Z,26.60
2018-08-06T18:17:41.896Z,26.50
2018-08-06T18:20:14.326Z,26.40
2018-08-06T18:22:43.130Z,26.40
2018-08-06T18:25:14.652Z,26.40
2018-08-06T18:27:44.291Z,26.40
2018-08-06T18:30:17.736Z,26.30
2018-08-06T18:32:46.553Z,26.30
2018-08-06T18:35:16.367Z,26.20
2018-08-06T18:37:45.163Z,26.10
2018-08-06T18:40:14.494Z,26.00
2018-08-06T18:42:43.274Z,25.80
2018-08-06T18:45:14.219Z,25.60
2018-08-06T18:47:43.725Z,25.40
2018-08-06T18:50:13.534Z,25.30
2018-08-06T18:52:43.052Z,25.20
2018-08-06T18:55:12.678Z,25.10
2018-08-06T18:57:41.939Z,24.90
2018-08-06T19:00:12.420Z,24.80
2018-08-06T19:02:41.360Z,24.60
2018-08-06T19:05:10.434Z,24.40
2018-08-06T19:07:39.437Z,24.30
2018-08-06T19:10:08.794Z,24.10
2018-08-06T19:12:43.039Z,24.00
2018-08-06T19:15:12.028Z,23.90
2018-08-06T19:17:46.184Z,23.80
2018-08-06T19:20:15.206Z,23.80
2018-08-06T19:22:44.042Z,23.70
2018-08-06T19:25:18.158Z,23.70
2018-08-06T19:27:46.955Z,23.70
2018-08-06T19:30:15.742Z,23.70
2018-08-06T19:32:44.545Z,23.70
2018-08-06T19:35:13.634Z,23.70
2018-08-06T19:37:45.223Z,23.80
2018-08-06T19:40:14.166Z,23.70
2018-08-06T19:42:48.377Z,23.70
2018-08-06T19:45:17.177Z,23.70
2018-08-06T19:47:45.970Z,23.70
2018-08-06T19:50:20.266Z,23.60
2018-08-06T19:52:49.090Z,23.50
2018-08-06T19:55:23.266Z,23.50
2018-08-06T19:57:52.061Z,23.50
2018-08-06T20:00:20.901Z,23.50
2018-08-06T20:02:49.789Z,23.50
2018-08-06T20:05:18.577Z,23.50
2018-08-06T20:07:47.451Z,23.40
2018-08-06T20:10:16.210Z,23.40
2018-08-06T20:12:45.006Z,23.40
2018-08-06T20:15:16.827Z,23.40
2018-08-06T20:17:45.902Z,23.40
2018-08-06T20:20:14.673Z,23.40
2018-08-06T20:22:43.843Z,23.40
2018-08-06T20:25:16.877Z,23.30
2018-08-06T20:27:46.341Z,23.30
2018-08-06T20:30:16.349Z,23.30
2018-08-06T20:32:45.174Z,23.30
2018-08-06T20:35:15.106Z,23.30
2018-08-06T20:37:44.745Z,23.30
2018-08-06T20:40:13.583Z,23.20
2018-08-06T20:42:43.450Z,23.10
2018-08-06T20:45:13.629Z,23.10
2018-08-06T20:47:42.861Z,23.20
2018-08-06T20:50:14.309Z,23.10
2018-08-06T20:52:43.184Z,23.10
2018-08-06T20:55:12.255Z,23.10
2018-08-06T20:57:41.626Z,23.00
2018-08-06T21:00:14.542Z,23.00
2018-08-06T21:02:43.520Z,22.90
2018-08-06T21:05:12.133Z,22.90
2018-08-06T21:07:41.237Z,22.80
2018-08-06T21:10:11.766Z,22.80
2018-08-06T21:12:40.513Z,22.70
2018-08-06T21:15:10.251Z,22.60
2018-08-06T21:17:39.157Z,22.50
2018-08-06T21:20:12.170Z,22.50
2018-08-06T21:22:41.741Z,22.40
2018-08-06T21:25:11.255Z,22.50
2018-08-06T21:27:41.034Z,22.40
2018-08-06T21:30:14.858Z,22.40
2018-08-06T21:32:45.822Z,22.50
2018-08-06T21:35:15.053Z,22.50
2018-08-06T21:37:44.002Z,22.60
2018-08-06T21:40:12.821Z,22.60
2018-08-06T21:42:41.623Z,22.70
2018-08-06T21:45:10.421Z,22.70
2018-08-06T21:47:39.210Z,22.70
2018-08-06T21:50:08.745Z,22.70
2018-08-06T21:52:37.534Z,22.70
2018-08-06T21:55:06.638Z,22.70
2018-08-06T21:57:35.426Z,22.70
2018-08-06T22:00:08.921Z,22.70
2018-08-06T22:02:37.711Z,22.70
2018-08-06T22:05:07.479Z,22.60
2018-08-06T22:07:36.270Z,22.60
2018-08-06T22:10:05.290Z,22.60
2018-08-06T22:12:34.081Z,22.60
2018-08-06T22:15:02.890Z,22.60
2018-08-06T22:17:31.678Z,22.50
2018-08-06T22:20:00.486Z,22.50
2018-08-06T22:22:29.274Z,22.50
2018-08-06T22:24:58.117Z,22.50
2018-08-06T22:27:26.921Z,22.50
2018-08-06T22:29:55.717Z,22.40
2018-08-06T22:32:24.507Z,22.40
2018-08-06T22:34:53.305Z,22.30
2018-08-06T22:37:22.101Z,22.30
2018-08-06T22:39:50.911Z,22.30
2018-08-06T22:42:19.738Z,22.20
2018-08-06T22:44:48.540Z,22.20
2018-08-06T22:47:17.342Z,22.30
2018-08-06T22:49:46.146Z,22.30
2018-08-06T22:52:14.968Z,22.40
2018-08-06T22:54:43.767Z,22.40
2018-08-06T22:57:12.579Z,22.30
2018-08-06T22:59:41.373Z,22.30
2018-08-06T23:02:10.181Z,22.30
2018-08-06T23:04:39.002Z,22.30
2018-08-06T23:07:07.823Z,22.30
2018-08-06T23:09:36.631Z,22.30
2018-08-06T23:12:05.528Z,22.20
2018-08-06T23:14:34.326Z,22.10
2018-08-06T23:17:03.136Z,22.00
2018-08-06T23:19:31.918Z,21.90
2018-08-06T23:22:00.731Z,21.80
2018-08-06T23:24:29.539Z,21.80
2018-08-06T23:26:58.343Z,21.70
2018-08-06T23:29:27.137Z,21.60
2018-08-06T23:31:55.939Z,21.50
2018-08-06T23:34:24.766Z,21.50
2018-08-06T23:36:53.605Z,21.50
2018-08-06T23:39:22.391Z,21.40
2018-08-06T23:41:51.198Z,21.40
2018-08-06T23:44:19.994Z,21.40
2018-08-06T23:46:48.812Z,21.40
2018-08-06T23:49:17.607Z,21.40
2018-08-06T23:51:46.421Z,21.40
2018-08-06T23:54:15.221Z,21.30
2018-08-06T23:56:44.027Z,21.30
2018-08-06T23:59:12.807Z,21.30
